Time;durP1;ratioP1;P1;durP2;ratioP2;P2;SDS_P1;SDS_P2;PMS_P1;PMS_P2;Temp;Humidity;BMP_temperature;BMP_pressure;BME280_temperature;BME280_humidity;BME280_pressure;Samples;Min_cycle;Max_cycle;Signal;HPM_P1;HPM_P2
2022/03/14 00:01:33;;;;;;;15.27;7.95;;;;;;;7.24;94.00;99496.78;5050936;28;20037;-52
2022/03/14 00:03:59;;;;;;;16.27;7.78;;;;;;;7.22;94.32;99504.22;5050135;28;20464;-53
2022/03/14 00:06:25;;;;;;;13.98;7.55;;;;;;;7.27;94.55;99509.72;5057439;28;20029;-52
2022/03/14 00:08:54;;;;;;;14.73;7.97;;;;;;;7.15;95.20;99508.75;5056068;28;20032;-53
2022/03/14 00:11:19;;;;;;;16.05;7.25;;;;;;;7.11;95.68;99511.84;5051374;28;20025;-52
2022/03/14 00:13:46;;;;;;;13.50;7.38;;;;;;;7.10;96.13;99506.72;5051349;28;20083;-53
2022/03/14 00:16:13;;;;;;;14.45;8.10;;;;;;;7.06;96.59;99510.81;5046614;28;20039;-53
2022/03/14 00:18:42;;;;;;;14.27;7.75;;;;;;;7.08;96.95;99525.56;5051175;28;20494;-52
2022/03/14 00:21:07;;;;;;;17.38;8.15;;;;;;;7.00;97.98;99533.00;5053096;28;20043;-50
2022/03/14 00:23:33;;;;;;;15.65;7.50;;;;;;;6.96;98.44;99532.59;5053283;28;20024;-53
2022/03/14 00:25:59;;;;;;;15.65;8.80;;;;;;;6.93;98.99;99538.34;5048167;28;20036;-52
2022/03/14 00:28:24;;;;;;;16.23;7.80;;;;;;;6.93;98.52;99546.34;5053064;28;20021;-52
2022/03/14 00:30:50;;;;;;;18.55;8.15;;;;;;;6.94;98.77;99550.66;5050179;28;20032;-51
2022/03/14 00:33:15;;;;;;;16.33;8.70;;;;;;;6.94;98.88;99556.00;5053569;28;20544;-53
2022/03/14 00:35:41;;;;;;;15.18;8.18;;;;;;;6.94;99.36;99556.00;5044552;28;20033;-51
2022/03/14 00:38:07;;;;;;;16.15;8.45;;;;;;;6.95;99.57;99556.81;5049309;28;20360;-52
2022/03/14 00:40:32;;;;;;;16.90;7.28;;;;;;;6.95;99.95;99573.63;5047208;28;20034;-53
2022/03/14 00:42:58;;;;;;;15.80;8.25;;;;;;;6.90;100.00;99570.75;5046513;28;20036;-54
2022/03/14 00:45:24;;;;;;;16.90;8.55;;;;;;;6.94;100.00;99579.97;5046730;28;20040;-51
2022/03/14 00:47:50;;;;;;;19.48;8.80;;;;;;;6.88;100.00;99578.13;5057388;28;20085;-51
2022/03/14 00:50:15;;;;;;;15.32;8.25;;;;;;;6.91;100.00;99585.72;5048913;28;20064;-53
2022/03/14 00:52:41;;;;;;;16.10;8.23;;;;;;;6.97;100.00;99576.88;5054845;28;20566;-52
2022/03/14 00:55:07;;;;;;;17.92;8.63;;;;;;;7.03;100.00;99581.38;5049908;28;20384;-54
2022/03/14 00:57:32;;;;;;;14.23;8.02;;;;;;;7.05;100.00;99583.84;5049331;28;20501;-51
2022/03/14 00:59:57;;;;;;;15.90;8.60;;;;;;;7.02;100.00;99578.94;5059208;28;20051;-52
2022/03/14 01:02:24;;;;;;;19.88;8.68;;;;;;;7.06;100.00;99588.97;5054991;28;20036;-51
2022/03/14 01:04:49;;;;;;;16.73;9.00;;;;;;;7.02;100.00;99595.72;5053960;28;20417;-53
2022/03/14 01:07:14;;;;;;;20.48;9.43;;;;;;;7.05;100.00;99600.63;5057226;28;20036;-50
2022/03/14 01:09:40;;;;;;;17.77;9.68;;;;;;;7.06;100.00;99602.28;5058063;28;20033;-53
2022/03/14 01:12:06;;;;;;;19.40;9.55;;;;;;;7.07;100.00;99614.56;5055587;28;20056;-55
2022/03/14 01:14:31;;;;;;;19.98;10.13;;;;;;;7.09;100.00;99617.84;5062205;28;20429;-54
2022/03/14 01:16:57;;;;;;;21.88;10.10;;;;;;;7.11;100.00;99621.13;5060467;28;20029;-55
2022/03/14 01:19:22;;;;;;;25.02;10.90;;;;;;;7.10;100.00;99630.16;5049263;28;20028;-54
2022/03/14 01:21:48;;;;;;;23.17;11.38;;;;;;;7.11;100.00;99626.47;5056490;28;20446;-55
2022/03/14 01:24:13;;;;;;;27.02;10.75;;;;;;;7.10;100.00;99632.81;5056951;28;20044;-54
2022/03/14 01:26:39;;;;;;;18.73;10.57;;;;;;;7.05;100.00;99627.28;5048519;28;20032;-54
2022/03/14 01:29:05;;;;;;;23.80;11.18;;;;;;;7.05;100.00;99637.94;5049728;28;20029;-54
2022/03/14 01:31:30;;;;;;;21.27;10.95;;;;;;;6.95;100.00;99642.91;5051657;28;20450;-53
2022/03/14 01:33:56;;;;;;;25.98;10.75;;;;;;;6.91;100.00;99639.84;5053570;28;20410;-52
2022/03/14 01:36:21;;;;;;;24.67;11.18;;;;;;;6.90;100.00;99640.03;5047857;28;20439;-54
2022/03/14 01:38:47;;;;;;;22.13;9.73;;;;;;;6.95;100.00;99642.09;5052895;28;20155;-53
2022/03/14 01:41:16;;;;;;;22.35;11.35;;;;;;;6.95;100.00;99653.56;5053077;28;20163;-54
2022/03/14 01:43:42;;;;;;;20.07;10.87;;;;;;;6.91;100.00;99652.31;5058703;28;20047;-53
2022/03/14 01:46:07;;;;;;;21.35;11.35;;;;;;;6.86;100.00;99660.13;5050438;28;20281;-54
2022/03/14 01:48:33;;;;;;;23.48;11.40;;;;;;;6.85;100.00;99655.84;5055044;28;20471;-54
2022/03/14 01:50:58;;;;;;;22.55;11.20;;;;;;;6.85;100.00;99653.16;5053069;28;20036;-55
2022/03/14 01:53:23;;;;;;;26.90;12.50;;;;;;;6.84;100.00;99663.03;5051594;28;20037;-52
2022/03/14 01:55:50;;;;;;;22.88;11.10;;;;;;;6.85;100.00;99661.16;5045330;28;20033;-53
2022/03/14 01:58:16;;;;;;;27.90;12.05;;;;;;;6.84;100.00;99663.03;5053922;28;20108;-54
2022/03/14 02:00:43;;;;;;;28.45;11.50;;;;;;;6.86;100.00;99671.63;5054001;28;20033;-54
2022/03/14 02:03:08;;;;;;;25.58;12.10;;;;;;;6.84;100.00;99670.16;5049533;28;20494;-53
2022/03/14 02:05:37;;;;;;;28.30;11.82;;;;;;;6.83;100.00;99671.22;5086488;28;20055;-55
2022/03/14 02:08:05;;;;;;;24.27;11.40;;;;;;;6.80;100.00;99675.09;5057245;28;20494;-55
2022/03/14 02:10:31;;;;;;;25.90;12.50;;;;;;;6.79;100.00;99676.13;5058105;28;20084;-51
2022/03/14 02:12:56;;;;;;;24.75;12.70;;;;;;;6.78;100.00;99681.66;5053027;28;20475;-54
2022/03/14 02:15:22;;;;;;;24.33;11.07;;;;;;;6.79;100.00;99675.28;5050579;28;20033;-54
2022/03/14 02:17:47;;;;;;;23.02;10.63;;;;;;;6.85;100.00;99690.47;5048175;28;20062;-54
2022/03/14 02:20:12;;;;;;;20.88;10.98;;;;;;;6.91;100.00;99689.63;5054885;28;20734;-51
2022/03/14 02:22:38;;;;;;;18.10;9.48;;;;;;;6.88;100.00;99690.06;5049931;28;20744;-51
2022/03/14 02:25:08;;;;;;;22.17;10.32;;;;;;;6.91;100.00;99685.16;5057729;28;20100;-52
2022/03/14 02:27:34;;;;;;;20.45;10.77;;;;;;;6.92;100.00;99693.97;5052546;28;20098;-53
2022/03/14 02:29:59;;;;;;;18.55;9.55;;;;;;;6.86;100.00;99687.63;5059198;28;20049;-53
2022/03/14 02:32:24;;;;;;;22.80;9.43;;;;;;;6.86;100.00;99702.75;5048472;28;20033;-52
2022/03/14 02:34:50;;;;;;;19.70;10.00;;;;;;;6.86;100.00;99697.44;5047335;28;20746;-51
2022/03/14 02:37:15;;;;;;;17.63;8.43;;;;;;;6.87;100.00;99694.56;5056148;28;20371;-51
2022/03/14 02:39:41;;;;;;;20.05;9.48;;;;;;;6.80;100.00;99699.09;5052877;28;20384;-51
2022/03/14 02:42:06;;;;;;;17.35;9.13;;;;;;;6.84;100.00;99704.81;5051862;28;20075;-53
2022/03/14 02:44:32;;;;;;;16.40;9.40;;;;;;;6.80;100.00;99703.59;5048820;28;20111;-54
2022/03/14 02:46:57;;;;;;;19.05;9.10;;;;;;;6.79;100.00;99707.28;5046705;28;20033;-54
2022/03/14 02:49:23;;;;;;;17.58;9.00;;;;;;;6.72;100.00;99717.13;5046623;28;20044;-54
2022/03/14 02:51:48;;;;;;;12.15;7.00;;;;;;;6.77;100.00;99717.34;5051137;28;20430;-54
2022/03/14 02:54:14;;;;;;;13.73;7.30;;;;;;;6.72;100.00;99722.47;5048872;28;20045;-54
2022/03/14 02:56:40;;;;;;;14.32;7.03;;;;;;;6.70;100.00;99720.81;5053419;28;20631;-53
2022/03/14 02:59:06;;;;;;;17.70;7.43;;;;;;;6.69;100.00;99721.84;5049116;28;20484;-55
2022/03/14 03:01:32;;;;;;;13.52;7.45;;;;;;;6.70;100.00;99728.78;5051805;28;20757;-53
2022/03/14 03:03:57;;;;;;;13.95;7.03;;;;;;;6.70;100.00;99725.31;5056229;28;20565;-55
2022/03/14 03:06:23;;;;;;;10.68;6.40;;;;;;;6.65;100.00;99738.44;5052866;28;20029;-54
2022/03/14 03:08:52;;;;;;;12.30;7.03;;;;;;;6.64;100.00;99728.78;5054815;28;20031;-54
2022/03/14 03:11:18;;;;;;;10.63;6.55;;;;;;;6.62;100.00;99729.00;5054765;28;20044;-53
2022/03/14 03:13:43;;;;;;;12.27;6.57;;;;;;;6.60;100.00;99744.38;5053083;28;20021;-52
2022/03/14 03:16:09;;;;;;;11.77;6.45;;;;;;;6.61;100.00;99747.84;5046611;28;20024;-54
2022/03/14 03:18:35;;;;;;;12.55;6.82;;;;;;;6.58;100.00;99748.25;5057730;28;20028;-54
2022/03/14 03:21:01;;;;;;;13.52;6.10;;;;;;;6.51;100.00;99744.75;5047102;28;20064;-53
2022/03/14 03:23:27;;;;;;;11.50;5.65;;;;;;;6.45;100.00;99754.41;5053052;28;20044;-54
2022/03/14 03:25:52;;;;;;;11.00;5.85;;;;;;;6.53;100.00;99762.19;5047595;28;20036;-53
2022/03/14 03:28:17;;;;;;;10.65;5.50;;;;;;;6.49;100.00;99763.63;5059371;28;20086;-55
2022/03/14 03:30:43;;;;;;;11.18;5.30;;;;;;;6.44;100.00;99769.56;5052370;28;20033;-53
2022/03/14 03:33:08;;;;;;;8.48;5.13;;;;;;;6.49;100.00;99771.63;5046045;28;20037;-51
2022/03/14 03:35:34;;;;;;;8.18;4.55;;;;;;;6.41;100.00;99769.94;5078875;28;20045;-53
2022/03/14 03:38:02;;;;;;;7.25;4.32;;;;;;;6.41;100.00;99775.25;5047259;28;20064;-51
2022/03/14 03:40:27;;;;;;;8.98;4.85;;;;;;;6.37;100.00;99776.72;5047243;28;20025;-52
2022/03/14 03:42:53;;;;;;;7.75;4.65;;;;;;;6.39;100.00;99777.34;5056571;28;20077;-51
2022/03/14 03:45:18;;;;;;;9.73;4.53;;;;;;;6.37;100.00;99775.91;5059287;28;20040;-51
2022/03/14 03:47:44;;;;;;;10.38;4.93;;;;;;;6.36;100.00;99787.53;5055492;28;20545;-52
2022/03/14 03:50:10;;;;;;;11.50;5.25;;;;;;;6.34;100.00;99792.25;5047510;28;20036;-52
2022/03/14 03:52:36;;;;;;;8.38;4.63;;;;;;;6.35;100.00;99797.38;5046563;28;20107;-53
2022/03/14 03:55:01;;;;;;;8.82;4.88;;;;;;;6.37;100.00;99794.53;5051704;28;20419;-53
2022/03/14 03:57:26;;;;;;;11.02;4.25;;;;;;;6.27;100.00;99808.22;5055741;28;20063;-54
2022/03/14 03:59:52;;;;;;;7.93;4.40;;;;;;;6.29;100.00;99814.16;5056894;28;20036;-53
2022/03/14 04:02:20;;;;;;;9.65;4.43;;;;;;;6.33;100.00;99817.25;5055673;28;20220;-53
2022/03/14 04:04:47;;;;;;;8.93;4.47;;;;;;;6.30;100.00;99818.47;5048080;28;20033;-53
2022/03/14 04:07:13;;;;;;;7.88;4.60;;;;;;;6.30;100.00;99826.44;5051945;28;20029;-53
2022/03/14 04:09:39;;;;;;;9.00;4.28;;;;;;;6.34;100.00;99821.53;5051499;28;20648;-52
2022/03/14 04:12:05;;;;;;;11.27;5.10;;;;;;;6.33;100.00;99820.72;5050208;28;20128;-53
2022/03/14 04:14:30;;;;;;;9.40;4.60;;;;;;;6.35;100.00;99823.19;5049489;28;20028;-54
2022/03/14 04:16:58;;;;;;;9.68;5.35;;;;;;;6.34;100.00;99827.69;5051346;28;20033;-54
2022/03/14 04:19:23;;;;;;;9.73;5.55;;;;;;;6.32;100.00;99834.25;5057223;28;20040;-51
2022/03/14 04:21:49;;;;;;;7.25;4.70;;;;;;;6.34;100.00;99838.34;5052510;28;20122;-54
2022/03/14 04:24:15;;;;;;;11.95;5.50;;;;;;;6.35;100.00;99841.81;5051209;28;20050;-54
2022/03/14 04:26:40;;;;;;;9.05;5.18;;;;;;;6.34;100.00;99849.00;5050759;28;20024;-55
2022/03/14 04:29:06;;;;;;;9.13;4.30;;;;;;;6.34;100.00;99849.00;5055051;28;20029;-55
2022/03/14 04:31:31;;;;;;;11.75;5.18;;;;;;;6.32;100.00;99852.88;5050062;28;20021;-54
2022/03/14 04:33:57;;;;;;;8.43;4.97;;;;;;;6.32;100.00;99852.88;5056559;28;20036;-55
2022/03/14 04:36:23;;;;;;;8.27;4.88;;;;;;;6.34;100.00;99853.47;5058416;28;20044;-55
2022/03/14 04:38:48;;;;;;;9.73;4.15;;;;;;;6.39;100.00;99864.34;5053350;28;20136;-52
2022/03/14 04:41:14;;;;;;;8.45;4.72;;;;;;;6.46;100.00;99857.22;5050516;28;20403;-55
2022/03/14 04:43:39;;;;;;;7.05;4.30;;;;;;;6.36;100.00;99864.75;5033288;28;20487;-55
2022/03/14 04:46:05;;;;;;;9.90;4.60;;;;;;;6.32;100.00;99872.34;5048789;28;20020;-51
2022/03/14 04:48:30;;;;;;;6.78;4.30;;;;;;;6.30;100.00;99870.91;5049248;28;20044;-56
2022/03/14 04:50:56;;;;;;;7.10;4.35;;;;;;;6.28;100.00;99865.75;5049656;28;20037;-55
2022/03/14 04:53:22;;;;;;;11.00;4.53;;;;;;;6.21;100.00;99871.03;5050142;28;20099;-55
2022/03/14 04:55:47;;;;;;;5.95;4.25;;;;;;;6.19;100.00;99872.25;5086211;28;20083;-55
2022/03/14 04:58:14;;;;;;;7.50;4.22;;;;;;;6.15;100.00;99877.16;5048289;28;20029;-53
2022/03/14 05:00:40;;;;;;;7.00;4.10;;;;;;;6.20;100.00;99884.56;5059445;28;20055;-55
2022/03/14 05:03:06;;;;;;;7.03;3.85;;;;;;;6.20;100.00;99890.72;5054595;28;20041;-52
2022/03/14 05:05:32;;;;;;;10.13;4.38;;;;;;;6.09;100.00;99896.59;5049373;28;20601;-53
2022/03/14 05:08:00;;;;;;;6.97;4.40;;;;;;;6.08;100.00;99900.25;5055388;28;20036;-50
2022/03/14 05:10:26;;;;;;;6.85;4.32;;;;;;;6.03;100.00;99905.34;5055744;28;20071;-53
2022/03/14 05:12:51;;;;;;;6.75;4.15;;;;;;;6.04;100.00;99907.00;5061839;28;20025;-53
2022/03/14 05:15:17;;;;;;;7.40;4.28;;;;;;;5.98;100.00;99908.59;5062115;28;20095;-51
2022/03/14 05:17:44;;;;;;;7.72;3.78;;;;;;;5.95;100.00;99913.50;5048606;28;20051;-55
2022/03/14 05:20:09;;;;;;;6.30;4.13;;;;;;;5.91;100.00;99913.03;5052558;28;20029;-55
2022/03/14 05:22:45;;;;;;;5.70;3.60;;;;;;;5.91;100.00;99922.84;5052736;28;20035;-53
2022/03/14 05:25:11;;;;;;;8.93;4.15;;;;;;;5.88;100.00;99929.38;5059591;28;20033;-53
2022/03/14 05:27:37;;;;;;;7.07;3.60;;;;;;;5.88;100.00;99928.56;5049422;28;20372;-51
2022/03/14 05:30:03;;;;;;;6.78;3.55;;;;;;;5.86;100.00;99931.41;5049460;28;20036;-53
2022/03/14 05:32:29;;;;;;;6.57;3.97;;;;;;;5.81;100.00;99939.16;5049291;28;20033;-53
2022/03/14 05:34:54;;;;;;;4.75;3.30;;;;;;;5.79;100.00;99934.03;5057777;28;20099;-53
2022/03/14 05:37:20;;;;;;;5.50;3.70;;;;;;;5.77;100.00;99928.09;5055307;28;20028;-53
2022/03/14 05:39:45;;;;;;;9.25;4.13;;;;;;;5.71;100.00;99936.81;5056621;28;20025;-54
2022/03/14 05:42:10;;;;;;;7.32;3.75;;;;;;;5.69;100.00;99940.69;5080756;28;20036;-53
2022/03/14 05:44:36;;;;;;;7.30;3.47;;;;;;;5.63;100.00;99947.63;5053889;28;20363;-52
2022/03/14 05:47:02;;;;;;;7.30;4.18;;;;;;;5.66;100.00;99952.53;5052612;28;20025;-52
2022/03/14 05:49:27;;;;;;;7.80;4.18;;;;;;;5.62;100.00;99961.94;5062809;28;20051;-54
2022/03/14 05:51:52;;;;;;;9.57;4.07;;;;;;;5.60;100.00;99962.13;5049748;28;20051;-51
2022/03/14 05:54:18;;;;;;;9.00;4.50;;;;;;;5.59;100.00;99964.97;5055909;28;20052;-53
2022/03/14 05:56:44;;;;;;;7.18;4.30;;;;;;;5.58;100.00;99966.00;5055056;28;20534;-54
2022/03/14 05:59:10;;;;;;;7.47;4.50;;;;;;;5.57;100.00;99975.00;5056493;28;20040;-53
2022/03/14 06:01:38;;;;;;;9.05;4.78;;;;;;;5.62;100.00;99980.56;5051104;28;20028;-52
2022/03/14 06:04:03;;;;;;;11.80;4.68;;;;;;;5.56;100.00;99984.78;5055482;28;20085;-53
2022/03/14 06:06:29;;;;;;;7.05;3.47;;;;;;;5.62;100.00;99988.53;5051692;28;20033;-53
2022/03/14 06:08:54;;;;;;;8.77;4.50;;;;;;;5.60;100.00;99985.25;5054229;28;20033;-54
2022/03/14 06:11:20;;;;;;;8.38;4.40;;;;;;;5.66;100.00;99988.97;5059541;28;20028;-53
2022/03/14 06:13:46;;;;;;;8.55;4.68;;;;;;;5.70;100.00;99996.38;5049087;28;20108;-53
2022/03/14 06:16:13;;;;;;;7.07;4.82;;;;;;;5.73;100.00;100003.97;5068932;28;20506;-52
2022/03/14 06:18:38;;;;;;;7.53;4.70;;;;;;;5.69;100.00;100009.84;5049624;28;20075;-52
2022/03/14 06:21:04;;;;;;;10.13;4.30;;;;;;;5.74;100.00;100013.59;5051364;28;20491;-53
2022/03/14 06:23:29;;;;;;;7.65;4.50;;;;;;;5.77;100.00;100010.56;5046444;28;20029;-53
2022/03/14 06:25:54;;;;;;;11.45;4.90;;;;;;;5.80;100.00;100018.16;5054000;28;20442;-53
2022/03/14 06:28:22;;;;;;;10.77;5.07;;;;;;;5.77;100.00;100029.19;5050908;28;20479;-55
2022/03/14 06:30:47;;;;;;;20.13;5.22;;;;;;;5.81;100.00;100033.09;5045922;28;20111;-53
2022/03/14 06:33:13;;;;;;;13.70;5.72;;;;;;;6.01;100.00;100037.78;5049683;28;20028;-53
2022/03/14 06:35:40;;;;;;;16.17;5.65;;;;;;;6.22;100.00;100043.06;5061024;28;20153;-55
2022/03/14 06:38:06;;;;;;;10.43;5.85;;;;;;;6.00;100.00;100044.94;5048137;28;20488;-56
2022/03/14 06:40:31;;;;;;;19.30;5.32;;;;;;;5.98;100.00;100046.16;5054195;28;20025;-52
2022/03/14 06:42:57;;;;;;;10.52;5.68;;;;;;;6.04;100.00;100056.03;5086196;28;20032;-55
2022/03/14 06:45:23;;;;;;;17.27;6.15;;;;;;;5.96;100.00;100058.81;5054849;28;20021;-54
2022/03/14 06:47:50;;;;;;;16.27;6.22;;;;;;;6.03;100.00;100059.72;5057032;28;20375;-55
2022/03/14 06:50:16;;;;;;;13.73;6.00;;;;;;;6.10;100.00;100060.59;5050196;28;20064;-53
2022/03/14 06:52:41;;;;;;;9.75;5.47;;;;;;;6.18;100.00;100068.41;5053335;28;20048;-53
2022/03/14 06:55:09;;;;;;;12.80;5.60;;;;;;;6.23;100.00;100076.66;5060047;28;20033;-55
2022/03/14 06:57:34;;;;;;;17.48;5.90;;;;;;;6.15;100.00;100068.81;5053977;28;20028;-54
2022/03/14 07:00:00;;;;;;;11.65;5.82;;;;;;;6.23;100.00;100070.50;5052868;28;20037;-55
2022/03/14 07:02:28;;;;;;;13.60;5.63;;;;;;;6.26;100.00;100073.63;5053019;28;20029;-53
2022/03/14 07:04:54;;;;;;;12.38;5.53;;;;;;;6.34;100.00;100082.47;5055900;28;20028;-55
2022/03/14 07:07:19;;;;;;;13.30;5.95;;;;;;;6.34;100.00;100077.97;5053589;28;20107;-55
2022/03/14 07:09:44;;;;;;;19.27;6.25;;;;;;;6.47;100.00;100082.56;5051655;28;20039;-55
2022/03/14 07:12:11;;;;;;;12.80;5.78;;;;;;;6.45;99.84;100081.94;5052503;28;20477;-56
2022/03/14 07:14:36;;;;;;;16.45;6.70;;;;;;;6.55;99.96;100085.06;5052759;28;20030;-55
2022/03/14 07:17:02;;;;;;;11.23;6.28;;;;;;;6.56;99.72;100089.38;5051760;28;20074;-52
2022/03/14 07:19:27;;;;;;;18.10;6.55;;;;;;;6.85;98.64;100092.84;5047145;28;20129;-55
2022/03/14 07:21:53;;;;;;;19.80;7.20;;;;;;;7.15;96.93;100095.22;5048572;28;20068;-54
2022/03/14 07:24:18;;;;;;;14.43;6.32;;;;;;;7.09;96.52;100094.19;5055086;28;20036;-54
2022/03/14 07:26:44;;;;;;;19.02;6.93;;;;;;;7.55;94.81;100094.34;5054842;28;20037;-55
2022/03/14 07:29:10;;;;;;;10.70;5.82;;;;;;;7.39;94.61;100097.38;5053402;28;20029;-54
2022/03/14 07:31:37;;;;;;;15.02;6.05;;;;;;;7.99;91.73;100103.66;5047991;28;20111;-55
2022/03/14 07:34:02;;;;;;;15.20;5.95;;;;;;;7.77;92.33;100108.34;5054372;28;20112;-54
2022/03/14 07:36:28;;;;;;;10.80;5.57;;;;;;;7.53;93.17;100125.72;5050038;28;20027;-54
2022/03/14 07:38:56;;;;;;;14.82;6.40;;;;;;;7.72;93.37;100126.00;5050450;28;20044;-52
2022/03/14 07:41:21;;;;;;;13.60;6.50;;;;;;;7.77;92.02;100123.53;5055035;28;20717;-55
2022/03/14 07:43:47;;;;;;;19.38;5.70;;;;;;;7.28;93.74;100135.28;5050253;28;20028;-55
2022/03/14 07:46:12;;;;;;;6.13;3.88;;;;;;;7.05;94.67;100138.25;5050498;28;20440;-55
2022/03/14 07:48:38;;;;;;;14.40;6.55;;;;;;;7.22;96.14;100136.09;5046964;28;20032;-54
2022/03/14 07:51:03;;;;;;;10.38;6.32;;;;;;;7.17;95.97;100152.66;5047293;28;20040;-55
2022/03/14 07:53:30;;;;;;;15.52;7.18;;;;;;;7.22;96.09;100146.75;5046957;28;20056;-55
2022/03/14 07:55:55;;;;;;;20.98;7.03;;;;;;;7.27;95.76;100152.31;5050725;28;20037;-55
2022/03/14 07:58:21;;;;;;;19.15;6.68;;;;;;;7.40;94.96;100147.03;5052044;28;20041;-53
2022/03/14 08:00:46;;;;;;;13.73;6.53;;;;;;;7.55;94.50;100150.34;5055033;28;20025;-53
2022/03/14 08:03:13;;;;;;;22.08;6.80;;;;;;;7.57;93.65;100152.84;5036387;28;20051;-52
2022/03/14 08:05:38;;;;;;;10.20;5.85;;;;;;;7.44;93.67;100158.09;5054821;28;21840;-53
2022/03/14 08:08:05;;;;;;;14.68;6.40;;;;;;;7.69;92.69;100158.41;5057312;28;20437;-55
2022/03/14 08:10:30;;;;;;;15.80;6.35;;;;;;;7.87;92.06;100165.84;5057861;28;20335;-54
2022/03/14 08:12:56;;;;;;;15.20;6.18;;;;;;;8.04;90.75;100169.78;5056706;28;20423;-55
2022/03/14 08:15:32;;;;;;;10.25;5.85;;;;;;;8.14;89.59;100174.75;5051276;28;20053;-53
2022/03/14 08:17:58;;;;;;;10.20;5.10;;;;;;;7.97;88.81;100177.78;5045985;28;20548;-54
2022/03/14 08:20:26;;;;;;;12.18;5.72;;;;;;;8.26;87.94;100186.44;5049895;28;20033;-55
2022/03/14 08:22:52;;;;;;;18.45;6.32;;;;;;;8.33;88.57;100187.28;5046524;28;20029;-53
2022/03/14 08:25:18;;;;;;;18.45;6.00;;;;;;;8.68;87.26;100196.97;5055881;28;20108;-55
2022/03/14 08:27:43;;;;;;;16.35;6.25;;;;;;;8.51;88.32;100186.72;5047290;28;20387;-55
2022/03/14 08:30:09;;;;;;;13.13;6.50;;;;;;;8.14;88.94;100196.91;5047653;28;20079;-54
2022/03/14 08:32:35;;;;;;;21.08;6.45;;;;;;;9.46;84.19;100199.69;5045700;28;20025;-55
2022/03/14 08:35:07;;;;;;;13.00;5.43;;;;;;;9.72;80.99;100204.97;5052196;28;20067;-54
2022/03/14 08:37:37;;;;;;;13.88;5.57;;;;;;;10.13;78.85;100217.13;5043933;28;20416;-55
2022/03/14 08:40:07;;;;;;;11.73;5.35;;;;;;;11.06;77.00;100225.47;5090042;28;20035;-54
2022/03/14 08:42:34;;;;;;;12.25;5.40;;;;;;;10.19;76.28;100225.34;5045015;28;20025;-54
2022/03/14 08:44:59;;;;;;;15.68;5.03;;;;;;;10.03;79.72;100232.81;5048139;28;20037;-55
2022/03/14 08:47:24;;;;;;;15.88;5.13;;;;;;;9.38;79.65;100240.06;5049438;28;20498;-55
2022/03/14 08:49:50;;;;;;;15.73;5.40;;;;;;;9.14;80.56;100242.41;5052110;28;20043;-55
2022/03/14 08:52:15;;;;;;;12.05;5.15;;;;;;;9.15;82.09;100246.72;5044259;28;20092;-54
2022/03/14 08:54:41;;;;;;;14.25;5.07;;;;;;;8.76;82.78;100248.41;5052075;28;20028;-53
2022/03/14 08:57:06;;;;;;;12.13;5.40;;;;;;;8.64;83.52;100256.19;5050890;28;20387;-54
2022/03/14 08:59:32;;;;;;;11.55;5.45;;;;;;;8.83;83.52;100259.88;5058917;28;20507;-54
2022/03/14 09:01:57;;;;;;;16.42;5.70;;;;;;;8.89;81.55;100260.94;5048418;28;20098;-54
2022/03/14 09:04:23;;;;;;;9.73;4.70;;;;;;;8.71;83.11;100266.91;5078268;28;20100;-54
2022/03/14 09:06:48;;;;;;;10.35;4.40;;;;;;;8.83;81.09;100262.56;5052180;28;20068;-53
2022/03/14 09:09:13;;;;;;;10.10;4.78;;;;;;;8.99;81.88;100273.91;5057786;28;20122;-53
2022/03/14 09:11:39;;;;;;;11.40;4.80;;;;;;;8.79;81.09;100285.41;5052250;28;20486;-54
2022/03/14 09:14:05;;;;;;;13.35;5.32;;;;;;;8.63;82.77;100285.78;5050291;28;20021;-53
2022/03/14 09:16:31;;;;;;;10.13;4.60;;;;;;;8.63;81.88;100285.78;5056805;28;20028;-53
2022/03/14 09:18:56;;;;;;;10.77;4.68;;;;;;;8.40;82.34;100292.31;5052056;28;20070;-51
2022/03/14 09:21:23;;;;;;;12.38;5.22;;;;;;;8.68;82.81;100288.66;5053777;28;20040;-53
2022/03/14 09:23:49;;;;;;;11.85;4.90;;;;;;;8.57;83.06;100289.28;5053259;28;20503;-54
2022/03/14 09:26:14;;;;;;;15.20;5.15;;;;;;;8.91;83.03;100293.63;5056189;28;20043;-54
2022/03/14 09:28:44;;;;;;;9.68;4.93;;;;;;;8.89;82.84;100284.19;5053477;28;20044;-54
2022/03/14 09:31:12;;;;;;;14.27;5.30;;;;;;;9.10;82.98;100283.94;5061274;28;20043;-52
2022/03/14 09:33:38;;;;;;;13.77;5.25;;;;;;;9.80;80.05;100292.25;5056902;28;20029;-50
2022/03/14 09:36:03;;;;;;;12.05;4.65;;;;;;;9.18;80.15;100285.59;5056004;28;20095;-52
2022/03/14 09:38:29;;;;;;;15.45;5.00;;;;;;;9.01;80.95;100288.69;5047036;28;20028;-53
2022/03/14 09:40:54;;;;;;;9.80;4.95;;;;;;;8.91;80.56;100280.28;5052668;28;20035;-53
2022/03/14 09:43:20;;;;;;;7.90;4.57;;;;;;;8.86;79.98;100296.06;5034058;28;20458;-54
2022/03/14 09:45:47;;;;;;;10.88;4.93;;;;;;;9.14;80.01;100293.22;5053461;28;20036;-54
2022/03/14 09:48:14;;;;;;;12.15;5.13;;;;;;;9.56;78.78;100296.44;5051786;28;20037;-53
2022/03/14 09:50:44;;;;;;;9.82;4.43;;;;;;;9.76;76.89;100304.44;5055690;28;20112;-54
2022/03/14 09:53:10;;;;;;;7.17;4.83;;;;;;;9.93;76.40;100318.16;5048579;28;20155;-52
2022/03/14 09:55:44;;;;;;;10.57;4.15;;;;;;;9.93;75.33;100318.16;5050030;28;20181;-54
2022/03/14 09:58:16;;;;;;;13.77;4.65;;;;;;;9.93;75.22;100318.16;5059209;28;20745;-53
2022/03/14 10:00:42;;;;;;;18.02;4.93;;;;;;;9.67;75.74;100311.84;5051642;28;20039;-50
2022/03/14 10:03:07;;;;;;;13.35;4.78;;;;;;;9.56;77.19;100328.56;5061366;28;20032;-52
2022/03/14 10:05:33;;;;;;;6.28;3.55;;;;;;;9.72;76.05;100327.28;5047562;28;20567;-54
2022/03/14 10:07:59;;;;;;;9.90;3.88;;;;;;;9.72;76.55;100325.44;5055526;28;20522;-53
2022/03/14 10:10:25;;;;;;;13.23;5.07;;;;;;;10.05;75.98;100329.03;5057458;28;20662;-54
2022/03/14 10:12:53;;;;;;;8.73;4.47;;;;;;;9.92;76.21;100328.03;5060312;28;20035;-54
2022/03/14 10:15:22;;;;;;;12.23;4.43;;;;;;;9.27;78.25;100327.97;5047702;28;20560;-53
2022/03/14 10:17:48;;;;;;;9.40;4.53;;;;;;;9.31;78.70;100330.22;5085086;28;20031;-54
2022/03/14 10:20:15;;;;;;;16.77;4.40;;;;;;;9.07;79.29;100351.22;5058030;28;20044;-54
2022/03/14 10:22:40;;;;;;;13.77;5.07;;;;;;;8.98;79.88;100350.59;5054467;28;20108;-52
2022/03/14 10:25:11;;;;;;;17.02;4.75;;;;;;;9.37;79.19;100356.16;5052506;28;20106;-54
2022/03/14 10:27:37;;;;;;;9.70;4.63;;;;;;;9.25;78.88;100353.28;5051809;28;20811;-54
2022/03/14 10:30:04;;;;;;;13.80;5.18;;;;;;;9.13;80.15;100360.28;5086620;28;20064;-54
2022/03/14 10:32:30;;;;;;;12.10;5.15;;;;;;;9.01;80.10;100352.03;5047849;28;20509;-54
2022/03/14 10:34:58;;;;;;;10.70;5.38;;;;;;;8.77;80.50;100364.97;5050682;28;20036;-54
2022/03/14 10:37:27;;;;;;;7.93;5.10;;;;;;;8.66;80.76;100362.88;5049809;28;20017;-53
2022/03/14 10:40:06;;;;;;;12.45;5.15;;;;;;;8.96;79.90;100373.22;5050523;28;20171;-51
2022/03/14 10:42:39;;;;;;;11.45;5.10;;;;;;;9.02;79.15;100383.94;5052938;28;20079;-54
2022/03/14 10:45:11;;;;;;;12.32;5.53;;;;;;;9.03;77.57;100382.06;5052143;28;20033;-53
2022/03/14 10:47:37;;;;;;;7.85;4.65;;;;;;;9.14;77.57;100384.16;5052020;28;20064;-53
2022/03/14 10:50:03;;;;;;;9.30;4.35;;;;;;;9.24;77.49;100389.91;5048511;28;20045;-53
2022/03/14 10:52:29;;;;;;;8.82;4.88;;;;;;;9.60;76.43;100383.31;5079144;28;20103;-54
2022/03/14 10:54:55;;;;;;;7.97;4.55;;;;;;;9.98;74.83;100379.94;5053456;28;20367;-51
2022/03/14 10:57:24;;;;;;;8.20;4.55;;;;;;;10.07;74.05;100384.03;5045735;28;20021;-54
2022/03/14 10:59:50;;;;;;;9.40;4.22;;;;;;;9.95;74.45;100377.69;5058105;28;20029;-53
2022/03/14 11:02:21;;;;;;;10.23;4.20;;;;;;;9.99;73.88;100386.97;5045585;28;20375;-54
2022/03/14 11:04:48;;;;;;;8.38;4.43;;;;;;;9.93;74.63;100388.63;5059845;28;20031;-53
2022/03/14 11:07:14;;;;;;;7.50;4.00;;;;;;;9.85;76.14;100390.69;5048972;28;20024;-54
2022/03/14 11:09:47;;;;;;;7.68;4.20;;;;;;;9.96;74.70;100397.25;5050998;28;20043;-52
2022/03/14 11:12:17;;;;;;;9.15;4.10;;;;;;;10.01;74.54;100389.41;5047917;28;20032;-51
2022/03/14 11:14:49;;;;;;;9.30;4.25;;;;;;;9.69;75.92;100392.78;5059872;28;20083;-53
2022/03/14 11:17:17;;;;;;;8.73;4.50;;;;;;;9.75;75.82;100407.19;5049238;28;20468;-54
2022/03/14 11:19:43;;;;;;;9.48;4.70;;;;;;;9.68;74.63;100412.56;5056171;28;20123;-54
2022/03/14 11:22:13;;;;;;;7.65;5.28;;;;;;;9.61;75.49;100411.75;5055023;28;20371;-52